Time;durP1;ratioP1;P1;durP2;ratioP2;P2;SDS_P1;SDS_P2;PMS_P1;PMS_P2;Temp;Humidity;BMP_temperature;BMP_pressure;BME280_temperature;BME280_humidity;BME280_pressure;Samples;Min_cycle;Max_cycle;Signal;HPM_P1;HPM_P2
2023/07/28 00:02:11;;;;;;;56.70;2.40;;;;;;;;;;5091143;28;20467;-68
2023/07/28 00:04:39;;;;;;;56.57;2.30;;;;;;;;;;5091417;28;20453;-68
2023/07/28 00:07:07;;;;;;;56.70;2.40;;;;;;;;;;5091244;28;20457;-68
2023/07/28 00:09:34;;;;;;;56.70;2.50;;;;;;;;;;5091070;28;20458;-68
2023/07/28 00:12:02;;;;;;;56.60;2.50;;;;;;;;;;5091182;28;20466;-68
2023/07/28 00:14:29;;;;;;;56.87;3.07;;;;;;;;;;5091437;28;20453;-68
2023/07/28 00:16:58;;;;;;;59.90;3.13;;;;;;;;;;5091158;28;20457;-67
2023/07/28 00:19:25;;;;;;;57.10;2.50;;;;;;;;;;5091119;28;20958;-68
2023/07/28 00:21:53;;;;;;;56.47;2.10;;;;;;;;;;5090817;28;20446;-68
2023/07/28 00:24:20;;;;;;;56.57;2.30;;;;;;;;;;5091333;28;20818;-68
2023/07/28 00:26:47;;;;;;;56.50;2.50;;;;;;;;;;5091288;28;20450;-68
2023/07/28 00:29:14;;;;;;;56.77;2.70;;;;;;;;;;5091303;28;20446;-69
2023/07/28 00:31:41;;;;;;;56.67;2.60;;;;;;;;;;5090727;28;21036;-68
2023/07/28 00:34:09;;;;;;;56.60;2.40;;;;;;;;;;5091093;28;20443;-68
2023/07/28 00:36:36;;;;;;;56.60;2.50;;;;;;;;;;5090935;28;20448;-68
2023/07/28 00:39:04;;;;;;;57.30;3.40;;;;;;;;;;5089317;28;20446;-68
2023/07/28 00:41:31;;;;;;;56.37;2.23;;;;;;;;;;5070800;28;20557;-68
2023/07/28 00:43:58;;;;;;;56.47;2.43;;;;;;;;;;5070822;28;21039;-68
2023/07/28 00:46:26;;;;;;;56.70;2.30;;;;;;;;;;5070742;28;20454;-68
2023/07/28 00:48:54;;;;;;;56.87;2.40;;;;;;;;;;5066675;28;20864;-68
2023/07/28 00:51:21;;;;;;;56.57;2.30;;;;;;;;;;5073414;28;20487;-71
2023/07/28 00:53:48;;;;;;;56.47;2.40;;;;;;;;;;5079666;28;20489;-71
2023/07/28 00:56:16;;;;;;;56.67;2.40;;;;;;;;;;5090845;28;20541;-71
2023/07/28 00:58:44;;;;;;;56.83;2.63;;;;;;;;;;5090904;28;20448;-70
2023/07/28 01:01:11;;;;;;;56.80;2.87;;;;;;;;;;5090707;28;20439;-71
2023/07/28 01:03:38;;;;;;;56.90;2.63;;;;;;;;;;5090638;28;20473;-71
2023/07/28 01:06:15;;;;;;;56.37;2.30;;;;;;;;;;5090105;28;20446;-71
2023/07/28 01:08:48;;;;;;;56.80;2.40;;;;;;;;;;5094768;28;20460;-71
2023/07/28 01:11:16;;;;;;;56.77;2.40;;;;;;;;;;5094326;28;20551;-71
2023/07/28 01:13:44;;;;;;;56.70;2.53;;;;;;;;;;5094333;28;20474;-71
2023/07/28 01:16:11;;;;;;;56.80;2.57;;;;;;;;;;5094174;28;20449;-70
2023/07/28 01:18:38;;;;;;;56.70;2.30;;;;;;;;;;5094691;28;20460;-71
2023/07/28 01:21:07;;;;;;;57.20;3.30;;;;;;;;;;5094007;28;20442;-71
2023/07/28 01:23:39;;;;;;;56.87;2.40;;;;;;;;;;5094131;28;20466;-69
2023/07/28 01:26:07;;;;;;;56.57;2.30;;;;;;;;;;5094289;28;20799;-71
2023/07/28 01:28:36;;;;;;;56.67;2.50;;;;;;;;;;5094233;28;20450;-69
2023/07/28 01:31:04;;;;;;;56.60;2.43;;;;;;;;;;5093656;28;20482;-70
2023/07/28 01:33:31;;;;;;;56.90;2.40;;;;;;;;;;5093907;28;21004;-71
2023/07/28 01:36:00;;;;;;;56.60;2.50;;;;;;;;;;5094315;28;20447;-71
2023/07/28 01:38:27;;;;;;;56.70;2.50;;;;;;;;;;5094079;28;20451;-71
2023/07/28 01:40:54;;;;;;;56.63;2.60;;;;;;;;;;5093561;28;20460;-71
2023/07/28 01:43:21;;;;;;;56.37;2.23;;;;;;;;;;5093807;28;20472;-71
2023/07/28 01:45:49;;;;;;;56.93;2.90;;;;;;;;;;5094050;28;20449;-71
2023/07/28 01:48:17;;;;;;;56.67;2.40;;;;;;;;;;5093925;28;20826;-71
2023/07/28 01:50:44;;;;;;;56.80;2.47;;;;;;;;;;5093406;28;20482;-70
2023/07/28 01:53:11;;;;;;;56.67;2.40;;;;;;;;;;5093694;28;20485;-71
2023/07/28 01:55:38;;;;;;;56.70;2.40;;;;;;;;;;5093486;28;20950;-70
2023/07/28 01:58:05;;;;;;;56.47;2.50;;;;;;;;;;5093552;28;20447;-70
2023/07/28 02:00:32;;;;;;;56.73;2.57;;;;;;;;;;5093582;28;20446;-71
2023/07/28 02:03:01;;;;;;;56.60;2.40;;;;;;;;;;5093450;28;20800;-70
2023/07/28 02:05:29;;;;;;;56.70;2.60;;;;;;;;;;5093535;28;20450;-70
2023/07/28 02:07:56;;;;;;;56.87;2.80;;;;;;;;;;5093551;28;21090;-71
2023/07/28 02:10:24;;;;;;;56.47;2.20;;;;;;;;;;5092971;28;20485;-70
2023/07/28 02:12:52;;;;;;;57.00;2.70;;;;;;;;;;5093191;28;20467;-71
2023/07/28 02:15:19;;;;;;;56.60;2.30;;;;;;;;;;5093494;28;20446;-71
2023/07/28 02:17:46;;;;;;;56.53;2.43;;;;;;;;;;5092738;28;20446;-71
2023/07/28 02:20:15;;;;;;;56.50;2.30;;;;;;;;;;5092964;28;20449;-70
2023/07/28 02:22:42;;;;;;;56.70;2.70;;;;;;;;;;5093195;28;20480;-70
2023/07/28 02:25:10;;;;;;;56.67;2.60;;;;;;;;;;5093030;28;20450;-71
2023/07/28 02:27:37;;;;;;;56.57;2.30;;;;;;;;;;5092935;28;20454;-71
2023/07/28 02:30:05;;;;;;;56.67;2.40;;;;;;;;;;5092941;28;20469;-69
2023/07/28 02:32:32;;;;;;;56.70;2.90;;;;;;;;;;5092926;28;21000;-71
2023/07/28 02:34:59;;;;;;;56.43;2.30;;;;;;;;;;5093194;28;20450;-71
2023/07/28 02:37:28;;;;;;;56.70;2.30;;;;;;;;;;5092817;28;20946;-71
2023/07/28 02:39:55;;;;;;;56.57;2.30;;;;;;;;;;5092841;28;20461;-70
2023/07/28 02:42:23;;;;;;;56.70;2.50;;;;;;;;;;5092693;28;20463;-70
2023/07/28 02:44:50;;;;;;;57.40;2.70;;;;;;;;;;5092960;28;20498;-71
2023/07/28 02:47:17;;;;;;;56.63;2.50;;;;;;;;;;5092647;28;20447;-70
2023/07/28 02:49:45;;;;;;;59.57;2.90;;;;;;;;;;5085068;28;20458;-71
2023/07/28 02:52:12;;;;;;;56.40;2.33;;;;;;;;;;5074727;28;20493;-71
2023/07/28 02:54:41;;;;;;;56.37;2.40;;;;;;;;;;5080646;28;20474;-70
2023/07/28 02:57:08;;;;;;;56.43;2.53;;;;;;;;;;5052410;28;20443;-71
2023/07/28 02:59:35;;;;;;;56.80;3.20;;;;;;;;;;5052261;28;20944;-69
2023/07/28 03:02:02;;;;;;;56.57;2.40;;;;;;;;;;5051899;28;20468;-70
2023/07/28 03:04:29;;;;;;;56.30;2.60;;;;;;;;;;5052145;28;20475;-69
2023/07/28 03:06:57;;;;;;;56.70;2.60;;;;;;;;;;5051944;28;20444;-71
2023/07/28 03:09:24;;;;;;;56.60;2.50;;;;;;;;;;5052119;28;20444;-71
2023/07/28 03:11:52;;;;;;;56.67;2.40;;;;;;;;;;5074336;28;21032;-71
2023/07/28 03:14:19;;;;;;;56.50;2.60;;;;;;;;;;5083879;28;20453;-70
2023/07/28 03:16:46;;;;;;;58.57;3.70;;;;;;;;;;5085447;28;20822;-71
2023/07/28 03:19:13;;;;;;;57.07;2.73;;;;;;;;;;5084433;28;20450;-69
2023/07/28 03:21:41;;;;;;;56.87;2.73;;;;;;;;;;5091993;28;20454;-71
2023/07/28 03:24:08;;;;;;;56.30;2.30;;;;;;;;;;5092198;28;20824;-68
2023/07/28 03:26:35;;;;;;;56.47;2.27;;;;;;;;;;5091914;28;20447;-70
2023/07/28 03:29:04;;;;;;;56.67;2.50;;;;;;;;;;5091071;28;20457;-70
2023/07/28 03:31:31;;;;;;;56.60;2.40;;;;;;;;;;5091376;28;20486;-70
2023/07/28 03:33:58;;;;;;;56.63;2.43;;;;;;;;;;5091642;28;20470;-70
2023/07/28 03:36:25;;;;;;;56.37;2.20;;;;;;;;;;5091795;28;20453;-70
2023/07/28 03:38:52;;;;;;;56.70;2.50;;;;;;;;;;5091885;28;20446;-70
2023/07/28 03:41:19;;;;;;;56.77;2.73;;;;;;;;;;5091496;28;20964;-70
2023/07/28 03:43:47;;;;;;;56.37;2.50;;;;;;;;;;5091659;28;20592;-69
2023/07/28 03:46:15;;;;;;;56.40;2.20;;;;;;;;;;5091492;28;20446;-70
2023/07/28 03:48:42;;;;;;;56.57;2.73;;;;;;;;;;5091813;28;20678;-70
2023/07/28 03:51:09;;;;;;;56.33;2.20;;;;;;;;;;5091466;28;20489;-70
2023/07/28 03:53:36;;;;;;;57.00;3.33;;;;;;;;;;5091480;28;20988;-71
2023/07/28 03:56:04;;;;;;;56.50;2.30;;;;;;;;;;5091388;28;20454;-71
2023/07/28 03:58:31;;;;;;;59.17;3.47;;;;;;;;;;5091577;28;20451;-70
2023/07/28 04:00:58;;;;;;;56.80;2.40;;;;;;;;;;5090988;28;20448;-70
2023/07/28 04:03:27;;;;;;;56.60;2.33;;;;;;;;;;5091340;28;20975;-70
2023/07/28 04:05:54;;;;;;;56.27;2.40;;;;;;;;;;5091486;28;20450;-71
2023/07/28 04:08:21;;;;;;;56.33;2.30;;;;;;;;;;5091476;28;20452;-69
2023/07/28 04:10:48;;;;;;;56.80;2.77;;;;;;;;;;5091083;28;20803;-71
2023/07/28 04:13:15;;;;;;;56.50;2.40;;;;;;;;;;5091426;28;20476;-69
2023/07/28 04:15:42;;;;;;;56.33;2.37;;;;;;;;;;5091164;28;20449;-71
2023/07/28 04:18:09;;;;;;;56.50;2.50;;;;;;;;;;5091967;28;20460;-69
2023/07/28 04:20:38;;;;;;;56.23;2.20;;;;;;;;;;5091241;28;20541;-70
2023/07/28 04:23:05;;;;;;;56.47;2.20;;;;;;;;;;5091285;28;20466;-70
2023/07/28 04:25:32;;;;;;;56.70;2.40;;;;;;;;;;5091089;28;20457;-70
2023/07/28 04:27:59;;;;;;;56.40;2.20;;;;;;;;;;5091076;28;20833;-70
2023/07/28 04:30:26;;;;;;;56.37;2.30;;;;;;;;;;5090849;28;20446;-70
2023/07/28 04:32:53;;;;;;;56.13;2.40;;;;;;;;;;5090894;28;20492;-70
2023/07/28 04:35:20;;;;;;;56.67;2.50;;;;;;;;;;5091143;28;20450;-70
2023/07/28 04:37:49;;;;;;;56.33;2.30;;;;;;;;;;5091459;28;20456;-70
2023/07/28 04:40:16;;;;;;;56.57;2.20;;;;;;;;;;5091940;28;20442;-69
2023/07/28 04:42:43;;;;;;;56.80;2.50;;;;;;;;;;5094840;28;20466;-70
2023/07/28 04:45:10;;;;;;;56.77;2.70;;;;;;;;;;5094924;28;20960;-69
2023/07/28 04:47:37;;;;;;;56.60;2.10;;;;;;;;;;5077718;28;20831;-70
2023/07/28 04:50:05;;;;;;;56.67;2.67;;;;;;;;;;5073039;28;20444;-70
2023/07/28 04:52:32;;;;;;;56.90;2.70;;;;;;;;;;5081694;28;20482;-69
2023/07/28 04:55:00;;;;;;;56.37;2.43;;;;;;;;;;5083694;28;20821;-70
2023/07/28 04:57:27;;;;;;;56.77;2.90;;;;;;;;;;5089012;28;20450;-70
2023/07/28 04:59:54;;;;;;;56.17;2.30;;;;;;;;;;5094614;28;20446;-70
2023/07/28 05:02:22;;;;;;;56.27;2.20;;;;;;;;;;5094533;28;20485;-70
2023/07/28 05:04:49;;;;;;;56.37;2.50;;;;;;;;;;5094775;28;20448;-69
2023/07/28 05:07:16;;;;;;;56.60;2.53;;;;;;;;;;5094488;28;20954;-70
2023/07/28 05:09:44;;;;;;;56.30;2.40;;;;;;;;;;5094900;28;20446;-69
2023/07/28 05:12:13;;;;;;;56.57;2.23;;;;;;;;;;5094515;28;20496;-70
2023/07/28 05:14:40;;;;;;;56.27;2.30;;;;;;;;;;5094391;28;20450;-70
2023/07/28 05:17:07;;;;;;;56.60;2.50;;;;;;;;;;5094373;28;20446;-68
2023/07/28 05:19:34;;;;;;;56.60;2.80;;;;;;;;;;5094445;28;20442;-70
2023/07/28 05:22:01;;;;;;;56.37;2.27;;;;;;;;;;5093984;28;20466;-70
2023/07/28 05:24:28;;;;;;;56.13;2.40;;;;;;;;;;5094148;28;20893;-70
2023/07/28 05:26:56;;;;;;;56.60;2.77;;;;;;;;;;5094327;28;20465;-70
2023/07/28 05:29:24;;;;;;;61.90;4.67;;;;;;;;;;5094304;28;20461;-70
2023/07/28 05:31:51;;;;;;;57.57;2.97;;;;;;;;;;5093640;28;20783;-70
2023/07/28 05:34:18;;;;;;;56.60;2.50;;;;;;;;;;5094241;28;20450;-70
2023/07/28 05:36:45;;;;;;;56.37;2.40;;;;;;;;;;5093927;28;20458;-70
2023/07/28 05:39:13;;;;;;;56.63;2.40;;;;;;;;;;5093931;28;20447;-70
2023/07/28 05:41:40;;;;;;;56.70;2.50;;;;;;;;;;5093468;28;20438;-69
2023/07/28 05:44:07;;;;;;;56.50;2.40;;;;;;;;;;5094028;28;20450;-70
2023/07/28 05:46:35;;;;;;;56.40;2.30;;;;;;;;;;5093811;28;20450;-69
2023/07/28 05:49:03;;;;;;;57.30;2.80;;;;;;;;;;5093898;28;20458;-70
2023/07/28 05:51:30;;;;;;;57.10;2.30;;;;;;;;;;5092692;28;20481;-69
2023/07/28 05:53:57;;;;;;;56.70;2.70;;;;;;;;;;5093618;28;20527;-70
2023/07/28 05:56:24;;;;;;;56.40;2.33;;;;;;;;;;5093681;28;20446;-68
2023/07/28 05:58:52;;;;;;;56.37;2.37;;;;;;;;;;5093748;28;20442;-71
2023/07/28 06:01:19;;;;;;;55.87;2.40;;;;;;;;;;5093329;28;20454;-69
2023/07/28 06:03:48;;;;;;;57.00;3.40;;;;;;;;;;5093406;28;20473;-68
2023/07/28 06:06:15;;;;;;;58.00;3.53;;;;;;;;;;5093353;28;20941;-70
2023/07/28 06:08:42;;;;;;;57.00;2.83;;;;;;;;;;5093707;28;20469;-70
2023/07/28 06:11:09;;;;;;;56.50;2.60;;;;;;;;;;5093075;28;20457;-70
2023/07/28 06:13:36;;;;;;;56.80;2.50;;;;;;;;;;5093329;28;20483;-70
2023/07/28 06:16:03;;;;;;;56.17;2.20;;;;;;;;;;5093290;28;20443;-70
2023/07/28 06:18:31;;;;;;;56.37;2.17;;;;;;;;;;5093066;28;20457;-70
2023/07/28 06:20:59;;;;;;;55.97;2.40;;;;;;;;;;5093243;28;20453;-70
2023/07/28 06:23:27;;;;;;;56.23;2.30;;;;;;;;;;5093228;28;20462;-70
2023/07/28 06:25:54;;;;;;;56.27;2.60;;;;;;;;;;5093036;28;20868;-70
2023/07/28 06:28:22;;;;;;;56.47;2.70;;;;;;;;;;5093217;28;20478;-70
2023/07/28 06:30:49;;;;;;;56.27;2.30;;;;;;;;;;5092790;28;20450;-69
2023/07/28 06:33:16;;;;;;;56.73;2.60;;;;;;;;;;5092744;28;20497;-70
2023/07/28 06:35:43;;;;;;;56.37;3.27;;;;;;;;;;5092708;28;20961;-70
2023/07/28 06:38:12;;;;;;;57.07;3.07;;;;;;;;;;5092997;28;20541;-70
2023/07/28 06:40:39;;;;;;;56.50;2.30;;;;;;;;;;5092630;28;20451;-70
2023/07/28 06:43:07;;;;;;;57.20;3.50;;;;;;;;;;5092713;28;20459;-70
2023/07/28 06:45:34;;;;;;;56.37;2.50;;;;;;;;;;5092457;28;20868;-70
2023/07/28 06:48:01;;;;;;;56.80;3.37;;;;;;;;;;5092750;28;20442;-70
2023/07/28 06:50:28;;;;;;;56.77;2.93;;;;;;;;;;5092463;28;20822;-70
2023/07/28 06:52:55;;;;;;;56.37;2.60;;;;;;;;;;5092393;28;20501;-70
2023/07/28 06:55:24;;;;;;;56.37;2.50;;;;;;;;;;5092332;28;20962;-70
2023/07/28 06:57:51;;;;;;;56.47;2.63;;;;;;;;;;5092514;28;20446;-70
2023/07/28 07:00:18;;;;;;;56.27;2.37;;;;;;;;;;5091972;28;20444;-70
2023/07/28 07:02:46;;;;;;;56.47;2.20;;;;;;;;;;5092289;28;20470;-70
2023/07/28 07:05:13;;;;;;;56.23;2.30;;;;;;;;;;5091737;28;20442;-70
2023/07/28 07:07:40;;;;;;;56.47;2.60;;;;;;;;;;5092332;28;20446;-70
2023/07/28 07:10:08;;;;;;;56.10;2.30;;;;;;;;;;5091882;28;20487;-70
2023/07/28 07:12:37;;;;;;;56.70;2.97;;;;;;;;;;5091914;28;20487;-69
2023/07/28 07:15:05;;;;;;;56.17;2.47;;;;;;;;;;5092322;28;20453;-70
2023/07/28 07:17:33;;;;;;;56.60;2.30;;;;;;;;;;5092160;28;20478;-69
2023/07/28 07:20:00;;;;;;;56.50;2.67;;;;;;;;;;5078817;28;20500;-68
2023/07/28 07:22:28;;;;;;;56.40;2.30;;;;;;;;;;5077632;28;20475;-69
2023/07/28 07:24:56;;;;;;;56.20;2.10;;;;;;;;;;5089188;28;20455;-68
2023/07/28 07:27:23;;;;;;;56.50;2.27;;;;;;;;;;5091572;28;20503;-69
2023/07/28 07:29:51;;;;;;;56.20;2.40;;;;;;;;;;5091903;28;21061;-69
2023/07/28 07:32:18;;;;;;;56.37;2.43;;;;;;;;;;5079758;28;20499;-69
2023/07/28 07:34:45;;;;;;;56.73;3.17;;;;;;;;;;5088582;28;20965;-69
2023/07/28 07:37:12;;;;;;;56.30;2.13;;;;;;;;;;5091764;28;20453;-70
2023/07/28 07:39:41;;;;;;;56.17;2.10;;;;;;;;;;5091651;28;20450;-69
2023/07/28 07:42:08;;;;;;;56.50;2.60;;;;;;;;;;5091510;28;20880;-69
2023/07/28 07:44:35;;;;;;;56.60;2.30;;;;;;;;;;5091810;28;20454;-68
2023/07/28 07:47:12;;;;;;;56.47;2.30;;;;;;;;;;5083091;28;20966;-69
2023/07/28 07:49:39;;;;;;;56.30;2.37;;;;;;;;;;5087751;28;20468;-70
2023/07/28 07:52:08;;;;;;;56.70;2.10;;;;;;;;;;5091115;28;20482;-69
2023/07/28 07:54:35;;;;;;;57.40;2.47;;;;;;;;;;5091495;28;20458;-69
2023/07/28 07:57:02;;;;;;;56.07;2.20;;;;;;;;;;5091366;28;20448;-69
2023/07/28 07:59:32;;;;;;;56.40;2.50;;;;;;;;;;5091546;28;20469;-69
2023/07/28 08:02:00;;;;;;;56.30;2.47;;;;;;;;;;5091220;28;20483;-69
2023/07/28 08:04:28;;;;;;;56.13;2.10;;;;;;;;;;5091435;28;20486;-69
2023/07/28 08:06:55;;;;;;;56.13;2.33;;;;;;;;;;5091212;28;20485;-69
2023/07/28 08:09:23;;;;;;;56.27;2.20;;;;;;;;;;5091711;28;20453;-69
2023/07/28 08:11:50;;;;;;;56.20;2.43;;;;;;;;;;5091209;28;20446;-69
2023/07/28 08:14:17;;;;;;;56.20;2.30;;;;;;;;;;5091073;28;20492;-69
2023/07/28 08:16:44;;;;;;;56.30;2.73;;;;;;;;;;5090995;28;20442;-68
2023/07/28 08:19:11;;;;;;;56.30;2.10;;;;;;;;;;5091278;28;20450;-70
2023/07/28 08:21:40;;;;;;;56.30;2.00;;;;;;;;;;5090827;28;20964;-69
2023/07/28 08:24:07;;;;;;;56.10;1.90;;;;;;;;;;5091318;28;20453;-70
2023/07/28 08:26:35;;;;;;;56.17;2.13;;;;;;;;;;5091066;28;20504;-69
2023/07/28 08:29:02;;;;;;;56.27;2.10;;;;;;;;;;5091153;28;20529;-69
2023/07/28 08:31:29;;;;;;;57.97;3.30;;;;;;;;;;5073642;28;20939;-69
2023/07/28 08:33:56;;;;;;;56.60;2.50;;;;;;;;;;5080393;28;20489;-70
2023/07/28 08:36:23;;;;;;;56.47;2.10;;;;;;;;;;5079185;28;20885;-69
2023/07/28 08:38:52;;;;;;;57.00;2.40;;;;;;;;;;5088525;28;20451;-69
2023/07/28 08:41:19;;;;;;;56.43;2.23;;;;;;;;;;5090834;28;20451;-69
2023/07/28 08:43:46;;;;;;;56.90;2.80;;;;;;;;;;5085508;28;20566;-69
2023/07/28 08:46:14;;;;;;;56.70;2.40;;;;;;;;;;5082440;28;20458;-69
2023/07/28 08:48:41;;;;;;;56.40;2.40;;;;;;;;;;5090930;28;20693;-69
2023/07/28 08:51:09;;;;;;;56.33;2.17;;;;;;;;;;5083804;28;20838;-69
2023/07/28 08:53:36;;;;;;;56.30;2.00;;;;;;;;;;5082378;28;20486;-69
2023/07/28 08:56:04;;;;;;;55.83;2.00;;;;;;;;;;5090616;28;20469;-69
2023/07/28 08:58:32;;;;;;;56.63;2.13;;;;;;;;;;5090893;28;20446;-69
2023/07/28 09:01:01;;;;;;;56.50;2.47;;;;;;;;;;5090525;28;20455;-69
2023/07/28 09:03:28;;;;;;;56.13;2.37;;;;;;;;;;5091109;28;20474;-69
2023/07/28 09:06:00;;;;;;;56.80;2.70;;;;;;;;;;5091013;28;20454;-69
2023/07/28 09:08:28;;;;;;;56.07;1.90;;;;;;;;;;5090693;28;20450;-68
2023/07/28 09:10:55;;;;;;;56.17;1.90;;;;;;;;;;5090374;28;20454;-69
2023/07/28 09:13:24;;;;;;;58.07;2.30;;;;;;;;;;5090499;28;20489;-69
2023/07/28 09:15:51;;;;;;;56.20;2.27;;;;;;;;;;5090766;28;20446;-70
2023/07/28 09:18:18;;;;;;;56.70;2.17;;;;;;;;;;5090761;28;20454;-69
2023/07/28 09:20:45;;;;;;;56.10;2.30;;;;;;;;;;5083250;28;20558;-69
2023/07/28 09:23:14;;;;;;;56.17;2.40;;;;;;;;;;5080452;28;20474;-69
2023/07/28 09:25:41;;;;;;;56.50;2.30;;;;;;;;;;5078466;28;20451;-69
2023/07/28 09:28:09;;;;;;;56.20;2.20;;;;;;;;;;5080824;28;20815;-69
2023/07/28 09:30:47;;;;;;;57.27;2.43;;;;;;;;;;5089542;28;20453;-70
2023/07/28 09:33:14;;;;;;;56.47;2.13;;;;;;;;;;5093935;28;20482;-70
2023/07/28 09:35:49;;;;;;;56.20;2.10;;;;;;;;;;5094031;28;20446;-70
2023/07/28 09:38:16;;;;;;;56.57;2.40;;;;;;;;;;5094038;28;20794;-70
2023/07/28 09:40:45;;;;;;;56.90;2.63;;;;;;;;;;5093573;28;20964;-69
2023/07/28 09:43:14;;;;;;;56.63;2.60;;;;;;;;;;5093800;28;20985;-70
2023/07/28 09:45:42;;;;;;;56.40;2.20;;;;;;;;;;5089730;28;20452;-70
2023/07/28 09:48:11;;;;;;;56.50;2.10;;;;;;;;;;5081862;28;20483;-69
2023/07/28 09:50:39;;;;;;;57.00;2.30;;;;;;;;;;5073357;28;20482;-70
2023/07/28 09:53:09;;;;;;;56.30;1.90;;;;;;;;;;5073305;28;20538;-70
2023/07/28 09:55:36;;;;;;;56.70;2.50;;;;;;;;;;5073333;28;20459;-70
2023/07/28 09:58:06;;;;;;;56.20;1.90;;;;;;;;;;5073582;28;20947;-69
2023/07/28 10:00:34;;;;;;;56.10;1.90;;;;;;;;;;5073092;28;20447;-69
2023/07/28 10:03:02;;;;;;;57.10;2.17;;;;;;;;;;5073253;28;20466;-68
2023/07/28 10:05:31;;;;;;;55.97;2.00;;;;;;;;;;5073148;28;20447;-69
2023/07/28 10:07:59;;;;;;;56.13;2.00;;;;;;;;;;5073147;28;20452;-69
2023/07/28 10:10:28;;;;;;;55.97;2.07;;;;;;;;;;5073106;28;20505;-69
2023/07/28 10:12:56;;;;;;;55.83;2.20;;;;;;;;;;5070528;28;20499;-69
2023/07/28 10:15:28;;;;;;;56.37;2.10;;;;;;;;;;5073025;28;20912;-69
2023/07/28 10:17:57;;;;;;;56.70;2.13;;;;;;;;;;5072859;28;20938;-69
2023/07/28 10:20:34;;;;;;;56.13;1.83;;;;;;;;;;5072446;28;20447;-70
2023/07/28 10:23:08;;;;;;;57.40;2.40;;;;;;;;;;5073083;28;20855;-70
2023/07/28 10:25:36;;;;;;;56.17;2.20;;;;;;;;;;5072824;28;20458;-69
2023/07/28 10:28:03;;;;;;;56.20;1.80;;;;;;;;;;5072697;28;20971;-69
2023/07/28 10:30:36;;;;;;;55.83;2.00;;;;;;;;;;5072358;28;20504;-70
2023/07/28 10:33:03;;;;;;;55.83;1.90;;;;;;;;;;5072613;28;20487;-70
2023/07/28 10:35:33;;;;;;;56.30;2.03;;;;;;;;;;5072742;28;20447;-69
2023/07/28 10:38:21;;;;;;;56.17;1.90;;;;;;;;;;5072478;28;20451;-70
2023/07/28 10:40:48;;;;;;;56.70;2.23;;;;;;;;;;5072178;28;20463;-70
2023/07/28 10:43:15;;;;;;;55.77;2.00;;;;;;;;;;5072861;28;20471;-69
2023/07/28 10:45:42;;;;;;;56.23;2.00;;;;;;;;;;5072631;28;20455;-70
2023/07/28 10:48:09;;;;;;;56.77;2.40;;;;;;;;;;5072394;28;20955;-69
2023/07/28 10:50:38;;;;;;;56.50;1.90;;;;;;;;;;5072371;28;20446;-70
2023/07/28 10:53:05;;;;;;;56.27;2.10;;;;;;;;;;5072249;28;20491;-69
2023/07/28 10:55:33;;;;;;;56.07;1.90;;;;;;;;;;5072027;28;20533;-70
2023/07/28 10:58:00;;;;;;;56.20;2.10;;;;;;;;;;5072459;28;20539;-70
2023/07/28 11:00:28;;;;;;;56.37;2.13;;;;;;;;;;5071883;28;20451;-69
2023/07/28 11:02:56;;;;;;;56.47;2.20;;;;;;;;;;5071939;28;20483;-69
2023/07/28 11:05:24;;;;;;;56.80;2.40;;;;;;;;;;5072017;28;20836;-68
2023/07/28 11:07:53;;;;;;;56.40;2.10;;;;;;;;;;5072077;28;20870;-69
2023/07/28 11:10:21;;;;;;;56.17;1.87;;;;;;;;;;5071651;28;20743;-70
2023/07/28 11:12:50;;;;;;;56.50;2.03;;;;;;;;;;5071756;28;20468;-69
2023/07/28 11:15:18;;;;;;;56.10;1.87;;;;;;;;;;5071964;28;20444;-69
2023/07/28 11:17:46;;;;;;;56.37;1.93;;;;;;;;;;5071836;28;20451;-69
2023/07/28 11:20:17;;;;;;;56.20;1.90;;;;;;;;;;5072019;28;20505;-70
2023/07/28 11:22:45;;;;;;;55.83;1.70;;;;;;;;;;5076235;28;20550;-70
2023/07/28 11:25:13;;;;;;;56.10;1.90;;;;;;;;;;5083035;28;20434;-69
2023/07/28 11:27:41;;;;;;;57.13;2.97;;;;;;;;;;5092031;28;20446;-69
2023/07/28 11:30:09;;;;;;;56.20;1.80;;;;;;;;;;5080726;28;20462;-69
2023/07/28 11:32:36;;;;;;;56.10;1.90;;;;;;;;;;5087505;28;20550;-70
2023/07/28 11:35:05;;;;;;;56.20;2.10;;;;;;;;;;5091684;28;20478;-70
2023/07/28 11:37:33;;;;;;;56.30;2.10;;;;;;;;;;5085053;28;20457;-68
2023/07/28 11:40:00;;;;;;;56.47;1.80;;;;;;;;;;5083381;28;20456;-67
2023/07/28 11:42:29;;;;;;;56.20;1.73;;;;;;;;;;5091777;28;20467;-70
2023/07/28 11:44:56;;;;;;;56.40;2.23;;;;;;;;;;5091669;28;21063;-69
2023/07/28 11:47:23;;;;;;;56.03;1.73;;;;;;;;;;5081485;28;20955;-70
2023/07/28 11:49:51;;;;;;;56.27;1.80;;;;;;;;;;5088281;28;20446;-69
2023/07/28 11:52:19;;;;;;;55.90;1.60;;;;;;;;;;5091144;28;20466;-68
2023/07/28 11:54:46;;;;;;;55.90;1.60;;;;;;;;;;5091586;28;20844;-70
2023/07/28 11:57:14;;;;;;;56.67;2.00;;;;;;;;;;5091450;28;20974;-69
2023/07/28 11:59:43;;;;;;;56.10;1.90;;;;;;;;;;5091604;28;20818;-69
2023/07/28 12:02:10;;;;;;;55.97;1.60;;;;;;;;;;5091497;28;20818;-70
2023/07/28 12:04:38;;;;;;;56.10;1.80;;;;;;;;;;5092085;28;20442;-70
2023/07/28 12:07:06;;;;;;;55.97;1.60;;;;;;;;;;5091822;28;20450;-70
2023/07/28 12:09:33;;;;;;;56.20;1.83;;;;;;;;;;5091876;28;20446;-69
2023/07/28 12:12:00;;;;;;;57.67;2.13;;;;;;;;;;5091333;28;20498;-70
2023/07/28 12:14:34;;;;;;;55.83;1.70;;;;;;;;;;5091232;28;20482;-69
2023/07/28 12:17:03;;;;;;;55.97;1.83;;;;;;;;;;5091102;28;20822;-70
2023/07/28 12:19:30;;;;;;;55.90;1.50;;;;;;;;;;5091416;28;20447;-70
2023/07/28 12:21:57;;;;;;;55.97;1.60;;;;;;;;;;5090813;28;20476;-68
2023/07/28 12:24:25;;;;;;;56.17;1.50;;;;;;;;;;5091469;28;20469;-70
2023/07/28 12:26:52;;;;;;;56.10;1.70;;;;;;;;;;5091177;28;20847;-70
2023/07/28 12:29:19;;;;;;;56.03;1.70;;;;;;;;;;5091056;28;21065;-71
2023/07/28 12:31:46;;;;;;;56.40;2.10;;;;;;;;;;5090985;28;20446;-70
2023/07/28 12:34:15;;;;;;;56.70;2.13;;;;;;;;;;5091137;28;20482;-69
2023/07/28 12:36:42;;;;;;;56.40;1.70;;;;;;;;;;5091149;28;20442;-70
2023/07/28 12:39:09;;;;;;;56.27;1.93;;;;;;;;;;5091143;28;20447;-71
2023/07/28 12:41:36;;;;;;;56.27;1.80;;;;;;;;;;5090658;28;20532;-70
2023/07/28 12:44:03;;;;;;;56.37;1.90;;;;;;;;;;5090936;28;20542;-71
2023/07/28 12:46:31;;;;;;;56.43;1.80;;;;;;;;;;5091108;28;20500;-71
2023/07/28 12:48:58;;;;;;;56.23;1.90;;;;;;;;;;5090932;28;20946;-70
2023/07/28 12:51:27;;;;;;;56.07;1.90;;;;;;;;;;5090649;28;20451;-71
2023/07/28 12:53:54;;;;;;;56.43;2.13;;;;;;;;;;5090734;28;20483;-71
2023/07/28 12:56:21;;;;;;;55.97;1.90;;;;;;;;;;5090939;28;20446;-70
2023/07/28 12:58:48;;;;;;;56.17;1.80;;;;;;;;;;5091116;28;20447;-70
2023/07/28 13:01:15;;;;;;;55.77;1.73;;;;;;;;;;5091900;28;20453;-70
2023/07/28 13:03:42;;;;;;;58.60;3.07;;;;;;;;;;5093485;28;20481;-70
2023/07/28 13:06:09;;;;;;;56.90;2.00;;;;;;;;;;5074244;28;20447;-70
2023/07/28 13:08:37;;;;;;;56.30;1.90;;;;;;;;;;5074412;28;20447;-70
2023/07/28 13:11:05;;;;;;;56.60;1.90;;;;;;;;;;5073825;28;20451;-69
2023/07/28 13:13:33;;;;;;;56.03;1.87;;;;;;;;;;5074327;28;20590;-70
2023/07/28 13:16:00;;;;;;;56.20;1.90;;;;;;;;;;5074359;28;21017;-70
2023/07/28 13:18:29;;;;;;;56.27;2.13;;;;;;;;;;5074263;28;20449;-69
2023/07/28 13:20:56;;;;;;;56.43;1.93;;;;;;;;;;5073016;28;20498;-70
2023/07/28 13:23:23;;;;;;;56.43;1.83;;;;;;;;;;5076259;28;20808;-69
2023/07/28 13:25:52;;;;;;;56.27;2.20;;;;;;;;;;5083462;28;20534;-70
2023/07/28 13:28:19;;;;;;;56.60;2.20;;;;;;;;;;5082482;28;20450;-70
2023/07/28 13:30:47;;;;;;;56.43;1.97;;;;;;;;;;5091154;28;20454;-70
2023/07/28 13:33:14;;;;;;;55.87;1.80;;;;;;;;;;5094265;28;20905;-69
2023/07/28 13:35:41;;;;;;;56.60;2.17;;;;;;;;;;5087586;28;20489;-70
2023/07/28 13:38:08;;;;;;;56.33;2.00;;;;;;;;;;5077733;28;20532;-69
2023/07/28 13:40:36;;;;;;;56.47;1.90;;;;;;;;;;5088661;28;20943;-70
2023/07/28 13:43:04;;;;;;;56.23;1.80;;;;;;;;;;5054574;28;20478;-70
2023/07/28 13:45:32;;;;;;;56.47;1.77;;;;;;;;;;5053443;28;20937;-70
2023/07/28 13:47:59;;;;;;;56.57;1.90;;;;;;;;;;5053563;28;20484;-71
2023/07/28 13:50:26;;;;;;;56.70;2.07;;;;;;;;;;5053924;28;20456;-70
2023/07/28 13:52:53;;;;;;;56.40;2.43;;;;;;;;;;5053261;28;20474;-71
2023/07/28 13:55:20;;;;;;;56.37;2.00;;;;;;;;;;5053045;28;20575;-70
2023/07/28 13:57:47;;;;;;;56.77;2.50;;;;;;;;;;5053615;28;20472;-71
2023/07/28 14:00:16;;;;;;;56.57;2.00;;;;;;;;;;5052929;28;20444;-69
2023/07/28 14:02:43;;;;;;;56.67;2.20;;;;;;;;;;5053266;28;20477;-69
2023/07/28 14:05:10;;;;;;;56.70;2.50;;;;;;;;;;5053285;28;20451;-70
2023/07/28 14:07:38;;;;;;;57.20;2.50;;;;;;;;;;5053270;28;20506;-70
2023/07/28 14:10:05;;;;;;;56.47;2.40;;;;;;;;;;5053215;28;20839;-69
2023/07/28 14:12:32;;;;;;;57.13;2.20;;;;;;;;;;5052170;28;20476;-70
2023/07/28 14:14:59;;;;;;;56.53;2.23;;;;;;;;;;5052885;28;20507;-70
2023/07/28 14:17:28;;;;;;;56.73;2.50;;;;;;;;;;5052006;28;20456;-71
2023/07/28 14:19:55;;;;;;;56.57;2.20;;;;;;;;;;5052090;28;20448;-69
2023/07/28 14:22:22;;;;;;;56.97;2.40;;;;;;;;;;5052258;28;20464;-70
2023/07/28 14:24:49;;;;;;;56.90;2.70;;;;;;;;;;5052448;28;20535;-70
2023/07/28 14:27:16;;;;;;;56.83;2.40;;;;;;;;;;5052254;28;20448;-70
2023/07/28 14:29:43;;;;;;;56.97;3.27;;;;;;;;;;5052367;28;20827;-70
2023/07/28 14:32:10;;;;;;;57.97;2.70;;;;;;;;;;5052065;28;20474;-70
2023/07/28 14:34:39;;;;;;;56.97;2.50;;;;;;;;;;5051831;28;20859;-71